createdAt,value
2022-08-17T00:03:08.485Z,15.80
2022-08-17T00:08:15.548Z,13.00
2022-08-17T00:13:33.145Z,13.70
2022-08-17T00:18:58.403Z,18.10
2022-08-17T00:23:59.686Z,13.30
2022-08-17T00:29:02.855Z,13.30
2022-08-17T00:34:09.432Z,13.50
2022-08-17T00:39:12.583Z,13.60
2022-08-17T00:44:16.580Z,15.10
2022-08-17T00:49:19.992Z,14.90
2022-08-17T00:54:31.493Z,13.60
2022-08-17T00:59:39.213Z,18.30
2022-08-17T01:04:46.512Z,15.70
2022-08-17T01:09:51.511Z,14.40
2022-08-17T01:14:54.587Z,12.10
2022-08-17T01:19:57.929Z,12.50
2022-08-17T01:25:03.688Z,15.00
2022-08-17T01:30:57.465Z,16.10
2022-08-17T01:35:34.050Z,15.10
2022-08-17T01:40:44.072Z,14.60
2022-08-17T01:46:03.002Z,13.80
2022-08-17T01:51:07.723Z,12.40
2022-08-17T01:56:13.844Z,13.10
2022-08-17T02:01:25.469Z,15.90
2022-08-17T02:06:53.661Z,15.10
2022-08-17T02:12:00.213Z,14.40
2022-08-17T02:17:24.829Z,13.40
2022-08-17T02:22:28.938Z,13.70
2022-08-17T02:27:31.943Z,15.70
2022-08-17T02:32:35.002Z,16.20
2022-08-17T02:37:37.877Z,14.60
2022-08-17T02:42:44.079Z,17.10
2022-08-17T02:47:47.546Z,15.20
2022-08-17T02:53:01.948Z,17.40
2022-08-17T02:58:06.135Z,14.90
2022-08-17T03:03:13.727Z,16.80
2022-08-17T03:08:19.117Z,19.00
2022-08-17T03:13:22.529Z,15.50
2022-08-17T03:18:27.344Z,13.90
2022-08-17T03:23:32.628Z,19.00
2022-08-17T03:28:35.912Z,15.20
2022-08-17T03:33:39.424Z,15.50
2022-08-17T03:38:42.480Z,14.70
2022-08-17T03:43:48.064Z,19.20
2022-08-17T03:49:09.540Z,18.40
2022-08-17T03:54:30.986Z,16.20
2022-08-17T03:59:34.914Z,16.40
2022-08-17T04:04:39.262Z,18.10
2022-08-17T04:09:43.214Z,17.00
2022-08-17T04:14:52.640Z,18.00
2022-08-17T04:19:57.627Z,17.80
2022-08-17T04:25:06.989Z,17.80
2022-08-17T04:30:10.750Z,17.10
2022-08-17T04:35:19.136Z,17.20
2022-08-17T04:40:42.739Z,18.10
2022-08-17T04:45:55.067Z,17.20
2022-08-17T04:51:00.284Z,16.20
2022-08-17T04:56:04.005Z,19.00
2022-08-17T05:01:07.564Z,17.00
2022-08-17T05:06:11.169Z,18.30
2022-08-17T05:11:15.049Z,17.50
2022-08-17T05:16:19.731Z,15.50
2022-08-17T05:21:23.458Z,17.40
2022-08-17T05:26:28.727Z,15.30
2022-08-17T05:31:32.567Z,19.00
2022-08-17T05:36:41.763Z,14.00
2022-08-17T05:41:48.142Z,15.50
2022-08-17T05:46:54.265Z,15.10
2022-08-17T05:52:02.253Z,14.70
2022-08-17T05:57:18.195Z,16.10
2022-08-17T06:02:30.252Z,16.50
2022-08-17T06:07:48.374Z,17.30
2022-08-17T06:13:12.773Z,16.80
2022-08-17T06:18:19.366Z,17.50
2022-08-17T06:23:39.696Z,16.20
2022-08-17T06:29:00.025Z,14.90
2022-08-17T06:34:06.673Z,13.60
2022-08-17T06:39:20.180Z,15.40
2022-08-17T06:44:51.262Z,14.90
2022-08-17T06:50:08.470Z,13.00
2022-08-17T06:55:24.779Z,13.90
2022-08-17T07:00:35.597Z,13.70
2022-08-17T07:05:44.129Z,13.40
2022-08-17T07:10:55.815Z,16.90
2022-08-17T07:16:11.445Z,12.30
2022-08-17T07:21:31.888Z,15.40
2022-08-17T07:26:34.887Z,13.70
2022-08-17T07:31:37.960Z,15.10
2022-08-17T07:36:44.205Z,15.20
2022-08-17T07:41:57.519Z,14.80
2022-08-17T07:47:20.673Z,15.30
2022-08-17T07:52:51.099Z,12.90
2022-08-17T07:57:57.899Z,11.40
2022-08-17T08:03:14.271Z,13.20
2022-08-17T08:08:44.779Z,12.50
2022-08-17T08:13:50.094Z,11.90
2022-08-17T08:19:03.989Z,10.60
2022-08-17T08:24:31.438Z,12.70
2022-08-17T08:29:53.155Z,9.10
2022-08-17T08:35:33.821Z,11.00
2022-08-17T08:40:52.477Z,11.40
2022-08-17T08:46:19.572Z,10.00
2022-08-17T08:51:33.068Z,10.10
2022-08-17T08:57:19.731Z,11.10
2022-08-17T09:02:34.646Z,11.40
2022-08-17T09:08:10.416Z,9.30
2022-08-17T09:13:32.069Z,8.70
2022-08-17T09:19:01.610Z,9.40
2022-08-17T09:24:20.687Z,8.80
2022-08-17T09:29:26.549Z,13.20
2022-08-17T09:34:40.053Z,12.90
2022-08-17T09:40:09.838Z,11.60
2022-08-17T09:45:34.254Z,9.50
2022-08-17T09:51:05.073Z,12.70
2022-08-17T09:56:45.599Z,10.10
2022-08-17T10:02:07.171Z,8.30
2022-08-17T10:07:19.291Z,10.20
2022-08-17T10:12:46.432Z,8.60
2022-08-17T10:18:22.529Z,9.90
2022-08-17T10:23:48.700Z,7.80
2022-08-17T10:29:04.484Z,10.90
2022-08-17T10:34:23.061Z,8.20
2022-08-17T10:39:54.607Z,8.00
2022-08-17T10:45:16.500Z,8.20
2022-08-17T10:50:49.817Z,9.60
2022-08-17T10:56:11.671Z,10.10
2022-08-17T11:01:14.621Z,9.20
2022-08-17T11:06:22.593Z,7.10
2022-08-17T11:11:59.950Z,7.40
2022-08-17T11:17:15.654Z,8.70
2022-08-17T11:22:49.593Z,11.60
2022-08-17T11:28:14.190Z,7.20
2022-08-17T11:33:44.956Z,8.10
2022-08-17T11:39:00.797Z,8.30
2022-08-17T11:44:18.905Z,7.40
2022-08-17T11:50:04.809Z,9.10
2022-08-17T11:55:34.503Z,8.50
2022-08-17T12:00:46.012Z,5.90
2022-08-17T12:05:52.656Z,8.90
2022-08-17T12:11:01.052Z,5.60
2022-08-17T12:16:05.249Z,7.90
2022-08-17T12:21:27.628Z,6.70
2022-08-17T12:26:33.366Z,7.00
2022-08-17T12:31:44.538Z,8.70
2022-08-17T12:36:51.520Z,7.20
2022-08-17T12:42:02.117Z,8.60
2022-08-17T12:47:22.178Z,7.80
2022-08-17T12:52:29.769Z,8.60
2022-08-17T12:57:45.845Z,9.90
2022-08-17T13:03:00.866Z,8.60
2022-08-17T13:08:20.487Z,8.00
2022-08-17T13:13:26.830Z,9.30
2022-08-17T13:18:43.878Z,8.30
2022-08-17T13:24:03.325Z,7.40
2022-08-17T13:29:29.367Z,6.10
2022-08-17T13:35:13.524Z,8.90
2022-08-17T13:40:19.452Z,8.60
2022-08-17T13:45:34.823Z,6.40
2022-08-17T13:50:45.357Z,7.30
2022-08-17T13:55:58.659Z,7.50
2022-08-17T14:01:31.765Z,6.80
2022-08-17T14:06:53.705Z,6.40
2022-08-17T14:11:58.377Z,10.60
2022-08-17T14:17:01.405Z,7.90
2022-08-17T14:22:08.973Z,9.70
2022-08-17T14:27:12.277Z,9.10
2022-08-17T14:32:23.155Z,8.30
2022-08-17T14:37:28.025Z,7.60
2022-08-17T14:42:34.418Z,8.30
2022-08-17T14:47:39.380Z,7.70
2022-08-17T14:57:45.773Z,7.10
2022-08-17T15:02:54.278Z,7.00
2022-08-17T15:07:59.070Z,8.20
2022-08-17T15:13:02.189Z,7.90
2022-08-17T15:18:05.266Z,6.30
2022-08-17T15:23:12.593Z,7.60
2022-08-17T15:28:16.955Z,7.60
2022-08-17T15:33:35.295Z,10.60
2022-08-17T15:38:39.916Z,6.70
2022-08-17T15:43:44.641Z,8.30
2022-08-17T15:48:51.055Z,8.70
2022-08-17T15:54:19.119Z,9.70
2022-08-17T15:59:45.969Z,11.00
2022-08-17T16:04:49.514Z,10.20
2022-08-17T16:09:54.913Z,9.50
2022-08-17T16:15:01.497Z,8.90
2022-08-17T16:20:06.076Z,7.30
2022-08-17T16:25:18.977Z,10.50
2022-08-17T16:30:25.160Z,10.20
2022-08-17T16:35:28.235Z,9.70
2022-08-17T16:40:35.833Z,10.30
2022-08-17T16:45:40.942Z,10.80
2022-08-17T16:50:44.228Z,11.20
2022-08-17T17:01:09.228Z,8.80
2022-08-17T17:06:36.653Z,7.50
2022-08-17T17:11:48.217Z,13.10
2022-08-17T17:17:13.762Z,10.00
2022-08-17T17:22:31.414Z,11.00
2022-08-17T17:27:47.584Z,11.50
2022-08-17T17:33:12.382Z,9.50
2022-08-17T17:38:29.233Z,8.00
2022-08-17T17:43:39.548Z,9.20
2022-08-17T17:48:43.532Z,9.70
2022-08-17T17:54:07.322Z,9.00
2022-08-17T17:59:26.881Z,9.50
2022-08-17T18:04:37.542Z,9.50
2022-08-17T18:09:53.793Z,11.30
2022-08-17T18:15:29.867Z,10.20
2022-08-17T18:20:43.123Z,10.10
2022-08-17T18:25:58.875Z,9.90
2022-08-17T18:31:13.162Z,8.40
2022-08-17T18:36:34.228Z,10.70
2022-08-17T18:41:43.651Z,10.60
2022-08-17T18:46:46.743Z,10.60
2022-08-17T18:52:07.015Z,9.50
2022-08-17T18:57:12.450Z,9.40
2022-08-17T19:07:37.435Z,13.10
2022-08-17T19:12:43.323Z,10.40
2022-08-17T19:18:02.066Z,14.40
2022-08-17T19:23:27.689Z,10.40
2022-08-17T19:28:56.827Z,9.70
2022-08-17T19:34:01.882Z,8.40
2022-08-17T19:39:38.137Z,9.00
2022-08-17T19:45:10.821Z,9.40
2022-08-17T19:50:38.707Z,10.30
2022-08-17T19:55:56.901Z,13.90
2022-08-17T20:01:00.195Z,13.70
2022-08-17T20:06:14.809Z,13.90
2022-08-17T20:11:26.157Z,11.40
2022-08-17T20:16:29.382Z,10.30
2022-08-17T20:21:44.141Z,12.00
2022-08-17T20:26:55.463Z,10.20
2022-08-17T20:32:14.603Z,11.70
2022-08-17T20:42:20.461Z,9.60
2022-08-17T20:48:00.863Z,11.80
2022-08-17T20:53:09.114Z,9.80
2022-08-17T20:58:14.968Z,13.00
2022-08-17T21:03:23.435Z,12.70
2022-08-17T21:08:36.878Z,11.70
2022-08-17T21:14:07.195Z,13.00
2022-08-17T21:19:22.392Z,10.10
2022-08-17T21:24:36.632Z,12.40
2022-08-17T21:30:10.049Z,11.50
2022-08-17T21:35:19.419Z,10.90
2022-08-17T21:40:27.405Z,13.70
2022-08-17T21:45:35.677Z,13.20
2022-08-17T21:50:41.787Z,12.80
2022-08-17T21:55:48.979Z,13.70
2022-08-17T22:01:21.856Z,12.50
2022-08-17T22:06:30.172Z,11.70
2022-08-17T22:11:58.251Z,12.40
2022-08-17T22:17:10.267Z,13.70
2022-08-17T22:22:22.104Z,13.50
2022-08-17T22:27:49.356Z,11.20
2022-08-17T22:32:53.384Z,9.70
2022-08-17T22:37:57.849Z,11.00
2022-08-17T22:43:05.708Z,10.00
2022-08-17T22:48:11.835Z,12.00
2022-08-17T22:53:42.407Z,10.70
2022-08-17T22:59:14.442Z,12.80
2022-08-17T23:04:39.024Z,13.00
2022-08-17T23:09:42.253Z,12.30
2022-08-17T23:14:47.094Z,12.00
2022-08-17T23:19:50.006Z,11.30
2022-08-17T23:24:52.957Z,13.20
2022-08-17T23:29:56.320Z,11.90
2022-08-17T23:34:59.275Z,12.30
2022-08-17T23:40:05.078Z,15.00
2022-08-17T23:45:08.817Z,11.80
2022-08-17T23:50:11.667Z,13.40
2022-08-17T23:55:14.760Z,13.10
